sensor_id;sensor_type;location;lat;lon;timestamp;P1;durP1;ratioP1;P2;durP2;ratioP2
49314;SDS011;36672;50.710;12.498;2022-11-30T00:00:09;10.55;;;7.50;;
49314;SDS011;36672;50.710;12.498;2022-11-30T00:02:35;11.63;;;7.70;;
49314;SDS011;36672;50.710;12.498;2022-11-30T00:05:00;10.23;;;7.68;;
49314;SDS011;36672;50.710;12.498;2022-11-30T00:07:25;8.50;;;7.03;;
49314;SDS011;36672;50.710;12.498;2022-11-30T00:09:51;11.82;;;7.72;;
49314;SDS011;36672;50.710;12.498;2022-11-30T00:12:16;11.05;;;8.13;;
49314;SDS011;36672;50.710;12.498;2022-11-30T00:14:41;10.68;;;7.80;;
49314;SDS011;36672;50.710;12.498;2022-11-30T00:17:06;12.57;;;8.18;;
49314;SDS011;36672;50.710;12.498;2022-11-30T00:19:32;9.95;;;7.50;;
49314;SDS011;36672;50.710;12.498;2022-11-30T00:21:57;10.13;;;7.07;;
49314;SDS011;36672;50.710;12.498;2022-11-30T00:24:22;9.43;;;7.55;;
49314;SDS011;36672;50.710;12.498;2022-11-30T00:26:48;10.70;;;7.55;;
49314;SDS011;36672;50.710;12.498;2022-11-30T00:29:13;9.82;;;7.47;;
49314;SDS011;36672;50.710;12.498;2022-11-30T00:31:38;9.02;;;7.40;;
49314;SDS011;36672;50.710;12.498;2022-11-30T00:34:04;10.15;;;7.88;;
49314;SDS011;36672;50.710;12.498;2022-11-30T00:36:29;10.93;;;7.65;;
49314;SDS011;36672;50.710;12.498;2022-11-30T00:38:54;10.48;;;7.63;;
49314;SDS011;36672;50.710;12.498;2022-11-30T00:41:20;11.18;;;6.25;;
49314;SDS011;36672;50.710;12.498;2022-11-30T00:43:45;9.30;;;7.38;;
49314;SDS011;36672;50.710;12.498;2022-11-30T00:46:11;9.13;;;7.57;;
49314;SDS011;36672;50.710;12.498;2022-11-30T00:48:37;9.40;;;7.78;;
49314;SDS011;36672;50.710;12.498;2022-11-30T00:51:03;11.18;;;7.82;;
49314;SDS011;36672;50.710;12.498;2022-11-30T00:53:29;10.07;;;7.97;;
49314;SDS011;36672;50.710;12.498;2022-11-30T00:55:55;10.30;;;7.32;;
49314;SDS011;36672;50.710;12.498;2022-11-30T00:58:21;11.38;;;8.00;;
49314;SDS011;36672;50.710;12.498;2022-11-30T01:00:46;9.23;;;6.95;;
49314;SDS011;36672;50.710;12.498;2022-11-30T01:03:12;9.80;;;7.22;;
49314;SDS011;36672;50.710;12.498;2022-11-30T01:05:38;9.93;;;7.05;;
49314;SDS011;36672;50.710;12.498;2022-11-30T01:08:04;8.77;;;7.20;;
49314;SDS011;36672;50.710;12.498;2022-11-30T01:10:34;14.23;;;9.85;;
49314;SDS011;36672;50.710;12.498;2022-11-30T01:13:00;11.65;;;8.50;;
49314;SDS011;36672;50.710;12.498;2022-11-30T01:15:26;10.73;;;8.27;;
49314;SDS011;36672;50.710;12.498;2022-11-30T01:17:51;11.25;;;8.32;;
49314;SDS011;36672;50.710;12.498;2022-11-30T01:20:17;14.77;;;8.52;;
49314;SDS011;36672;50.710;12.498;2022-11-30T01:22:42;11.32;;;8.18;;
49314;SDS011;36672;50.710;12.498;2022-11-30T01:25:08;11.65;;;8.07;;
49314;SDS011;36672;50.710;12.498;2022-11-30T01:27:33;12.02;;;8.43;;
49314;SDS011;36672;50.710;12.498;2022-11-30T01:29:59;12.40;;;8.50;;
49314;SDS011;36672;50.710;12.498;2022-11-30T01:32:24;10.52;;;7.70;;
49314;SDS011;36672;50.710;12.498;2022-11-30T01:34:49;14.15;;;8.25;;
49314;SDS011;36672;50.710;12.498;2022-11-30T01:37:15;9.52;;;7.40;;
49314;SDS011;36672;50.710;12.498;2022-11-30T01:39:40;9.30;;;7.20;;
49314;SDS011;36672;50.710;12.498;2022-11-30T01:42:06;10.95;;;7.57;;
49314;SDS011;36672;50.710;12.498;2022-11-30T01:44:46;11.20;;;8.00;;
49314;SDS011;36672;50.710;12.498;2022-11-30T01:47:11;8.80;;;7.25;;
49314;SDS011;36672;50.710;12.498;2022-11-30T01:49:40;11.20;;;7.78;;
49314;SDS011;36672;50.710;12.498;2022-11-30T01:52:20;9.48;;;7.68;;
49314;SDS011;36672;50.710;12.498;2022-11-30T01:54:54;11.13;;;7.72;;
49314;SDS011;36672;50.710;12.498;2022-11-30T01:57:34;10.73;;;7.90;;
49314;SDS011;36672;50.710;12.498;2022-11-30T02:00:02;17.42;;;8.65;;
49314;SDS011;36672;50.710;12.498;2022-11-30T02:02:38;10.77;;;8.43;;
49314;SDS011;36672;50.710;12.498;2022-11-30T02:05:11;12.15;;;8.40;;
49314;SDS011;36672;50.710;12.498;2022-11-30T02:07:37;10.02;;;7.43;;
49314;SDS011;36672;50.710;12.498;2022-11-30T02:10:03;11.93;;;7.97;;
49314;SDS011;36672;50.710;12.498;2022-11-30T02:12:33;10.48;;;7.15;;
49314;SDS011;36672;50.710;12.498;2022-11-30T02:15:10;9.65;;;7.90;;
49314;SDS011;36672;50.710;12.498;2022-11-30T02:17:43;8.68;;;7.50;;
49314;SDS011;36672;50.710;12.498;2022-11-30T02:23:02;9.00;;;7.20;;
49314;SDS011;36672;50.710;12.498;2022-11-30T02:26:02;9.07;;;7.28;;
49314;SDS011;36672;50.710;12.498;2022-11-30T02:31:45;11.27;;;7.18;;
49314;SDS011;36672;50.710;12.498;2022-11-30T02:34:20;10.77;;;7.68;;
49314;SDS011;36672;50.710;12.498;2022-11-30T02:36:50;11.98;;;8.45;;
49314;SDS011;36672;50.710;12.498;2022-11-30T02:39:19;9.75;;;7.85;;
49314;SDS011;36672;50.710;12.498;2022-11-30T02:41:45;11.60;;;8.10;;
49314;SDS011;36672;50.710;12.498;2022-11-30T02:44:11;10.07;;;7.28;;
49314;SDS011;36672;50.710;12.498;2022-11-30T02:49:32;10.40;;;7.35;;
49314;SDS011;36672;50.710;12.498;2022-11-30T02:52:00;11.35;;;7.95;;
49314;SDS011;36672;50.710;12.498;2022-11-30T02:54:26;11.68;;;8.40;;
49314;SDS011;36672;50.710;12.498;2022-11-30T02:56:52;12.18;;;8.57;;
49314;SDS011;36672;50.710;12.498;2022-11-30T02:59:17;10.30;;;7.95;;
49314;SDS011;36672;50.710;12.498;2022-11-30T03:01:44;11.00;;;8.15;;
49314;SDS011;36672;50.710;12.498;2022-11-30T03:04:09;11.77;;;7.90;;
49314;SDS011;36672;50.710;12.498;2022-11-30T03:06:34;9.82;;;8.20;;
49314;SDS011;36672;50.710;12.498;2022-11-30T03:09:00;9.65;;;7.68;;
49314;SDS011;36672;50.710;12.498;2022-11-30T03:11:25;11.45;;;8.15;;
49314;SDS011;36672;50.710;12.498;2022-11-30T03:13:51;10.32;;;7.65;;
49314;SDS011;36672;50.710;12.498;2022-11-30T03:16:16;10.15;;;7.82;;
49314;SDS011;36672;50.710;12.498;2022-11-30T03:18:41;11.82;;;8.73;;
49314;SDS011;36672;50.710;12.498;2022-11-30T03:21:07;11.32;;;8.40;;
49314;SDS011;36672;50.710;12.498;2022-11-30T03:23:34;9.73;;;7.88;;
49314;SDS011;36672;50.710;12.498;2022-11-30T03:26:00;11.88;;;7.53;;
49314;SDS011;36672;50.710;12.498;2022-11-30T03:28:26;11.07;;;8.23;;
49314;SDS011;36672;50.710;12.498;2022-11-30T03:30:51;11.00;;;8.23;;
49314;SDS011;36672;50.710;12.498;2022-11-30T03:33:17;10.13;;;8.07;;
49314;SDS011;36672;50.710;12.498;2022-11-30T03:35:42;10.00;;;7.90;;
49314;SDS011;36672;50.710;12.498;2022-11-30T03:38:08;13.75;;;8.23;;
49314;SDS011;36672;50.710;12.498;2022-11-30T03:40:37;9.75;;;7.22;;
49314;SDS011;36672;50.710;12.498;2022-11-30T03:43:02;9.32;;;7.45;;
49314;SDS011;36672;50.710;12.498;2022-11-30T03:45:28;10.73;;;7.22;;
49314;SDS011;36672;50.710;12.498;2022-11-30T03:47:54;10.50;;;7.60;;
49314;SDS011;36672;50.710;12.498;2022-11-30T03:50:19;10.45;;;7.38;;
49314;SDS011;36672;50.710;12.498;2022-11-30T03:52:45;10.07;;;7.43;;
49314;SDS011;36672;50.710;12.498;2022-11-30T03:55:10;11.15;;;7.90;;
49314;SDS011;36672;50.710;12.498;2022-11-30T03:57:35;9.23;;;7.57;;
49314;SDS011;36672;50.710;12.498;2022-11-30T04:00:01;10.00;;;7.60;;
49314;SDS011;36672;50.710;12.498;2022-11-30T04:02:28;11.02;;;8.45;;
49314;SDS011;36672;50.710;12.498;2022-11-30T04:04:53;9.25;;;7.47;;
49314;SDS011;36672;50.710;12.498;2022-11-30T04:07:18;10.25;;;7.90;;
49314;SDS011;36672;50.710;12.498;2022-11-30T04:09:43;9.88;;;7.68;;
49314;SDS011;36672;50.710;12.498;2022-11-30T04:12:09;11.73;;;8.10;;
49314;SDS011;36672;50.710;12.498;2022-11-30T04:14:34;10.88;;;8.02;;
49314;SDS011;36672;50.710;12.498;2022-11-30T04:16:59;12.05;;;8.63;;
49314;SDS011;36672;50.710;12.498;2022-11-30T04:19:25;10.75;;;8.27;;
49314;SDS011;36672;50.710;12.498;2022-11-30T04:21:50;12.82;;;8.88;;
49314;SDS011;36672;50.710;12.498;2022-11-30T04:24:16;13.02;;;8.48;;
49314;SDS011;36672;50.710;12.498;2022-11-30T04:26:41;10.07;;;8.18;;
49314;SDS011;36672;50.710;12.498;2022-11-30T04:29:07;13.93;;;10.25;;
49314;SDS011;36672;50.710;12.498;2022-11-30T04:31:32;12.60;;;8.27;;
49314;SDS011;36672;50.710;12.498;2022-11-30T04:33:57;10.57;;;7.95;;
49314;SDS011;36672;50.710;12.498;2022-11-30T04:36:23;9.68;;;7.47;;
49314;SDS011;36672;50.710;12.498;2022-11-30T04:38:48;9.93;;;7.40;;
49314;SDS011;36672;50.710;12.498;2022-11-30T04:41:14;11.30;;;7.47;;
49314;SDS011;36672;50.710;12.498;2022-11-30T04:43:39;10.30;;;7.40;;
49314;SDS011;36672;50.710;12.498;2022-11-30T04:46:05;10.38;;;7.50;;
49314;SDS011;36672;50.710;12.498;2022-11-30T04:48:31;10.73;;;7.38;;
49314;SDS011;36672;50.710;12.498;2022-11-30T04:51:03;9.65;;;7.38;;
49314;SDS011;36672;50.710;12.498;2022-11-30T04:53:30;9.90;;;7.40;;
49314;SDS011;36672;50.710;12.498;2022-11-30T04:55:55;11.52;;;7.30;;
49314;SDS011;36672;50.710;12.498;2022-11-30T04:58:21;11.10;;;7.43;;
49314;SDS011;36672;50.710;12.498;2022-11-30T05:00:46;9.57;;;6.85;;
49314;SDS011;36672;50.710;12.498;2022-11-30T05:03:12;11.95;;;7.45;;
49314;SDS011;36672;50.710;12.498;2022-11-30T05:05:37;12.38;;;7.63;;
49314;SDS011;36672;50.710;12.498;2022-11-30T05:08:02;11.50;;;7.72;;
49314;SDS011;36672;50.710;12.498;2022-11-30T05:10:28;10.57;;;7.15;;
49314;SDS011;36672;50.710;12.498;2022-11-30T05:12:54;12.50;;;6.82;;
49314;SDS011;36672;50.710;12.498;2022-11-30T05:15:20;12.57;;;7.82;;
49314;SDS011;36672;50.710;12.498;2022-11-30T05:17:46;12.30;;;8.52;;
49314;SDS011;36672;50.710;12.498;2022-11-30T05:20:11;11.73;;;8.48;;
49314;SDS011;36672;50.710;12.498;2022-11-30T05:22:36;11.70;;;8.10;;
49314;SDS011;36672;50.710;12.498;2022-11-30T05:25:02;11.68;;;8.60;;
49314;SDS011;36672;50.710;12.498;2022-11-30T05:27:28;11.70;;;7.63;;
49314;SDS011;36672;50.710;12.498;2022-11-30T05:29:53;9.52;;;7.55;;
49314;SDS011;36672;50.710;12.498;2022-11-30T05:32:18;14.60;;;8.63;;
49314;SDS011;36672;50.710;12.498;2022-11-30T05:34:44;10.95;;;7.78;;
49314;SDS011;36672;50.710;12.498;2022-11-30T05:37:09;10.75;;;8.00;;
49314;SDS011;36672;50.710;12.498;2022-11-30T05:39:34;11.80;;;8.80;;
49314;SDS011;36672;50.710;12.498;2022-11-30T05:41:59;13.43;;;8.30;;
49314;SDS011;36672;50.710;12.498;2022-11-30T05:44:25;9.43;;;7.75;;
49314;SDS011;36672;50.710;12.498;2022-11-30T05:46:50;14.55;;;8.32;;
49314;SDS011;36672;50.710;12.498;2022-11-30T05:49:15;10.60;;;8.25;;
49314;SDS011;36672;50.710;12.498;2022-11-30T05:51:41;12.40;;;8.55;;
49314;SDS011;36672;50.710;12.498;2022-11-30T05:54:06;12.55;;;8.43;;
49314;SDS011;36672;50.710;12.498;2022-11-30T05:56:31;11.15;;;8.25;;
49314;SDS011;36672;50.710;12.498;2022-11-30T05:58:57;13.88;;;8.27;;
49314;SDS011;36672;50.710;12.498;2022-11-30T06:01:23;10.52;;;8.18;;
49314;SDS011;36672;50.710;12.498;2022-11-30T06:03:50;10.85;;;7.55;;
49314;SDS011;36672;50.710;12.498;2022-11-30T06:06:16;13.45;;;8.13;;
49314;SDS011;36672;50.710;12.498;2022-11-30T06:08:43;18.98;;;9.55;;
49314;SDS011;36672;50.710;12.498;2022-11-30T06:11:09;12.30;;;8.32;;
49314;SDS011;36672;50.710;12.498;2022-11-30T06:13:34;11.57;;;8.18;;
49314;SDS011;36672;50.710;12.498;2022-11-30T06:16:03;12.35;;;7.85;;
49314;SDS011;36672;50.710;12.498;2022-11-30T06:18:29;10.73;;;7.50;;
49314;SDS011;36672;50.710;12.498;2022-11-30T06:20:58;9.23;;;6.55;;
49314;SDS011;36672;50.710;12.498;2022-11-30T06:23:25;10.68;;;7.95;;
49314;SDS011;36672;50.710;12.498;2022-11-30T06:25:50;9.35;;;7.47;;
49314;SDS011;36672;50.710;12.498;2022-11-30T06:28:15;12.90;;;7.55;;
49314;SDS011;36672;50.710;12.498;2022-11-30T06:30:41;11.73;;;7.93;;
49314;SDS011;36672;50.710;12.498;2022-11-30T06:33:06;10.95;;;7.45;;
49314;SDS011;36672;50.710;12.498;2022-11-30T06:35:31;10.32;;;7.82;;
49314;SDS011;36672;50.710;12.498;2022-11-30T06:37:57;11.88;;;7.63;;
49314;SDS011;36672;50.710;12.498;2022-11-30T06:40:24;9.65;;;7.50;;
49314;SDS011;36672;50.710;12.498;2022-11-30T06:42:49;9.30;;;7.60;;
49314;SDS011;36672;50.710;12.498;2022-11-30T06:45:15;10.05;;;7.97;;
49314;SDS011;36672;50.710;12.498;2022-11-30T06:47:40;10.98;;;8.20;;
49314;SDS011;36672;50.710;12.498;2022-11-30T06:50:05;12.75;;;8.02;;
49314;SDS011;36672;50.710;12.498;2022-11-30T06:52:32;12.23;;;7.45;;
49314;SDS011;36672;50.710;12.498;2022-11-30T06:54:57;10.82;;;8.15;;
49314;SDS011;36672;50.710;12.498;2022-11-30T06:57:29;11.95;;;8.43;;
49314;SDS011;36672;50.710;12.498;2022-11-30T06:59:55;11.90;;;8.43;;
49314;SDS011;36672;50.710;12.498;2022-11-30T07:02:21;11.52;;;8.57;;
49314;SDS011;36672;50.710;12.498;2022-11-30T07:04:46;12.00;;;7.93;;
49314;SDS011;36672;50.710;12.498;2022-11-30T07:07:11;11.63;;;7.93;;
49314;SDS011;36672;50.710;12.498;2022-11-30T07:09:37;15.13;;;8.45;;
49314;SDS011;36672;50.710;12.498;2022-11-30T07:12:02;14.18;;;8.75;;
49314;SDS011;36672;50.710;12.498;2022-11-30T07:14:28;11.95;;;8.38;;
49314;SDS011;36672;50.710;12.498;2022-11-30T07:16:55;14.75;;;10.20;;
49314;SDS011;36672;50.710;12.498;2022-11-30T07:19:20;12.52;;;9.80;;
49314;SDS011;36672;50.710;12.498;2022-11-30T07:21:45;15.80;;;10.23;;
49314;SDS011;36672;50.710;12.498;2022-11-30T07:24:11;16.40;;;10.00;;
49314;SDS011;36672;50.710;12.498;2022-11-30T07:26:55;15.07;;;8.13;;
49314;SDS011;36672;50.710;12.498;2022-11-30T07:29:22;12.82;;;9.10;;
49314;SDS011;36672;50.710;12.498;2022-11-30T07:31:51;15.85;;;9.13;;
49314;SDS011;36672;50.710;12.498;2022-11-30T07:34:17;13.73;;;9.50;;
49314;SDS011;36672;50.710;12.498;2022-11-30T07:36:43;14.80;;;10.20;;
49314;SDS011;36672;50.710;12.498;2022-11-30T07:39:08;15.80;;;9.25;;
49314;SDS011;36672;50.710;12.498;2022-11-30T07:41:34;12.75;;;9.35;;
49314;SDS011;36672;50.710;12.498;2022-11-30T07:43:59;18.25;;;9.73;;
49314;SDS011;36672;50.710;12.498;2022-11-30T07:46:25;13.38;;;8.73;;
49314;SDS011;36672;50.710;12.498;2022-11-30T07:48:50;12.13;;;8.07;;
49314;SDS011;36672;50.710;12.498;2022-11-30T07:51:17;10.80;;;8.02;;
49314;SDS011;36672;50.710;12.498;2022-11-30T07:53:44;14.77;;;8.45;;
49314;SDS011;36672;50.710;12.498;2022-11-30T07:56:11;14.73;;;9.10;;
49314;SDS011;36672;50.710;12.498;2022-11-30T07:58:38;12.40;;;8.55;;
49314;SDS011;36672;50.710;12.498;2022-11-30T08:01:05;11.93;;;8.93;;
49314;SDS011;36672;50.710;12.498;2022-11-30T08:03:33;11.40;;;8.75;;
49314;SDS011;36672;50.710;12.498;2022-11-30T08:05:59;12.95;;;8.45;;
49314;SDS011;36672;50.710;12.498;2022-11-30T08:08:29;12.65;;;9.00;;
49314;SDS011;36672;50.710;12.498;2022-11-30T08:10:56;14.45;;;9.20;;
49314;SDS011;36672;50.710;12.498;2022-11-30T08:13:22;14.07;;;10.00;;
49314;SDS011;36672;50.710;12.498;2022-11-30T08:15:48;13.88;;;9.38;;
49314;SDS011;36672;50.710;12.498;2022-11-30T08:18:14;11.60;;;9.38;;
49314;SDS011;36672;50.710;12.498;2022-11-30T08:20:39;13.57;;;9.45;;
49314;SDS011;36672;50.710;12.498;2022-11-30T08:23:05;13.95;;;9.85;;
49314;SDS011;36672;50.710;12.498;2022-11-30T08:25:30;12.85;;;9.95;;
49314;SDS011;36672;50.710;12.498;2022-11-30T08:27:55;14.48;;;10.35;;
49314;SDS011;36672;50.710;12.498;2022-11-30T08:30:21;17.13;;;12.75;;
49314;SDS011;36672;50.710;12.498;2022-11-30T08:32:46;15.52;;;11.65;;
49314;SDS011;36672;50.710;12.498;2022-11-30T08:35:11;16.08;;;12.35;;
49314;SDS011;36672;50.710;12.498;2022-11-30T08:37:37;15.68;;;12.50;;
49314;SDS011;36672;50.710;12.498;2022-11-30T08:40:02;16.73;;;12.98;;
49314;SDS011;36672;50.710;12.498;2022-11-30T08:42:29;16.52;;;12.73;;
49314;SDS011;36672;50.710;12.498;2022-11-30T08:44:54;17.80;;;13.43;;
49314;SDS011;36672;50.710;12.498;2022-11-30T08:47:19;15.50;;;12.23;;
49314;SDS011;36672;50.710;12.498;2022-11-30T08:49:45;14.90;;;12.50;;
49314;SDS011;36672;50.710;12.498;2022-11-30T08:52:10;14.32;;;12.13;;
49314;SDS011;36672;50.710;12.498;2022-11-30T08:54:35;16.35;;;13.02;;
49314;SDS011;36672;50.710;12.498;2022-11-30T08:57:03;15.30;;;12.50;;
49314;SDS011;36672;50.710;12.498;2022-11-30T08:59:29;13.05;;;11.23;;
49314;SDS011;36672;50.710;12.498;2022-11-30T09:01:55;17.38;;;13.35;;
49314;SDS011;36672;50.710;12.498;2022-11-30T09:04:20;15.80;;;12.80;;
49314;SDS011;36672;50.710;12.498;2022-11-30T09:06:46;16.48;;;12.27;;
49314;SDS011;36672;50.710;12.498;2022-11-30T09:09:11;15.63;;;12.68;;
49314;SDS011;36672;50.710;12.498;2022-11-30T09:11:37;16.35;;;12.88;;
49314;SDS011;36672;50.710;12.498;2022-11-30T09:14:03;16.45;;;13.10;;
49314;SDS011;36672;50.710;12.498;2022-11-30T09:16:29;16.65;;;12.30;;
49314;SDS011;36672;50.710;12.498;2022-11-30T09:18:55;19.45;;;12.52;;
49314;SDS011;36672;50.710;12.498;2022-11-30T09:21:21;16.95;;;13.27;;
49314;SDS011;36672;50.710;12.498;2022-11-30T09:23:48;16.30;;;12.40;;
49314;SDS011;36672;50.710;12.498;2022-11-30T09:26:15;15.25;;;12.30;;
49314;SDS011;36672;50.710;12.498;2022-11-30T09:28:42;18.48;;;12.23;;
49314;SDS011;36672;50.710;12.498;2022-11-30T09:33:39;16.35;;;11.02;;
49314;SDS011;36672;50.710;12.498;2022-11-30T09:36:05;14.73;;;11.75;;
49314;SDS011;36672;50.710;12.498;2022-11-30T09:38:32;14.52;;;10.82;;
49314;SDS011;36672;50.710;12.498;2022-11-30T09:41:03;12.52;;;10.27;;
49314;SDS011;36672;50.710;12.498;2022-11-30T09:49:26;14.63;;;11.45;;
49314;SDS011;36672;50.710;12.498;2022-11-30T09:51:55;14.82;;;10.82;;
49314;SDS011;36672;50.710;12.498;2022-11-30T09:54:29;14.38;;;11.35;;
49314;SDS011;36672;50.710;12.498;2022-11-30T09:57:01;14.70;;;11.55;;
49314;SDS011;36672;50.710;12.498;2022-11-30T09:59:34;15.52;;;11.35;;
49314;SDS011;36672;50.710;12.498;2022-11-30T10:02:05;12.52;;;10.15;;
49314;SDS011;36672;50.710;12.498;2022-11-30T10:04:41;12.90;;;11.05;;
49314;SDS011;36672;50.710;12.498;2022-11-30T10:12:59;13.20;;;10.45;;
49314;SDS011;36672;50.710;12.498;2022-11-30T10:21:12;12.23;;;9.57;;
49314;SDS011;36672;50.710;12.498;2022-11-30T10:23:50;11.15;;;9.90;;
49314;SDS011;36672;50.710;12.498;2022-11-30T10:26:35;13.05;;;9.90;;
49314;SDS011;36672;50.710;12.498;2022-11-30T10:31:36;13.90;;;8.93;;
49314;SDS011;36672;50.710;12.498;2022-11-30T10:34:19;12.15;;;9.73;;
49314;SDS011;36672;50.710;12.498;2022-11-30T10:36:49;10.60;;;8.90;;
49314;SDS011;36672;50.710;12.498;2022-11-30T10:39:26;10.15;;;9.02;;
49314;SDS011;36672;50.710;12.498;2022-11-30T10:42:01;10.25;;;8.80;;
49314;SDS011;36672;50.710;12.498;2022-11-30T10:44:34;11.50;;;9.20;;
49314;SDS011;36672;50.710;12.498;2022-11-30T10:49:48;11.75;;;9.88;;
49314;SDS011;36672;50.710;12.498;2022-11-30T10:52:15;11.98;;;9.98;;
49314;SDS011;36672;50.710;12.498;2022-11-30T10:54:45;11.52;;;9.85;;
49314;SDS011;36672;50.710;12.498;2022-11-30T10:57:13;11.05;;;9.15;;
49314;SDS011;36672;50.710;12.498;2022-11-30T10:59:46;12.20;;;9.98;;
49314;SDS011;36672;50.710;12.498;2022-11-30T11:08:03;10.70;;;9.30;;
49314;SDS011;36672;50.710;12.498;2022-11-30T11:10:43;11.30;;;9.70;;
49314;SDS011;36672;50.710;12.498;2022-11-30T11:13:14;11.45;;;9.18;;
49314;SDS011;36672;50.710;12.498;2022-11-30T11:15:54;10.43;;;9.10;;
49314;SDS011;36672;50.710;12.498;2022-11-30T11:18:22;11.43;;;9.38;;
49314;SDS011;36672;50.710;12.498;2022-11-30T11:21:35;14.60;;;9.50;;
49314;SDS011;36672;50.710;12.498;2022-11-30T11:23:36;13.55;;;10.65;;
49314;SDS011;36672;50.710;12.498;2022-11-30T11:26:07;11.82;;;9.75;;
49314;SDS011;36672;50.710;12.498;2022-11-30T11:28:45;11.68;;;9.30;;
49314;SDS011;36672;50.710;12.498;2022-11-30T11:31:35;11.82;;;9.15;;
49314;SDS011;36672;50.710;12.498;2022-11-30T11:34:01;13.02;;;9.50;;
49314;SDS011;36672;50.710;12.498;2022-11-30T11:36:28;13.27;;;10.02;;
49314;SDS011;36672;50.710;12.498;2022-11-30T11:38:56;11.88;;;10.20;;
49314;SDS011;36672;50.710;12.498;2022-11-30T11:41:27;11.98;;;9.95;;
49314;SDS011;36672;50.710;12.498;2022-11-30T11:46:33;11.82;;;9.32;;
49314;SDS011;36672;50.710;12.498;2022-11-30T11:51:37;13.70;;;9.80;;
49314;SDS011;36672;50.710;12.498;2022-11-30T11:56:38;11.43;;;10.00;;
49314;SDS011;36672;50.710;12.498;2022-11-30T12:03:56;17.60;;;11.25;;
49314;SDS011;36672;50.710;12.498;2022-11-30T12:06:26;13.90;;;10.90;;
49314;SDS011;36672;50.710;12.498;2022-11-30T12:08:56;12.30;;;10.27;;
49314;SDS011;36672;50.710;12.498;2022-11-30T12:11:33;14.05;;;9.65;;
49314;SDS011;36672;50.710;12.498;2022-11-30T12:14:08;13.52;;;10.02;;
49314;SDS011;36672;50.710;12.498;2022-11-30T12:16:38;15.15;;;10.80;;
49314;SDS011;36672;50.710;12.498;2022-11-30T12:19:16;21.95;;;11.45;;
49314;SDS011;36672;50.710;12.498;2022-11-30T12:27:03;12.88;;;10.60;;
49314;SDS011;36672;50.710;12.498;2022-11-30T12:29:44;14.80;;;12.15;;
49314;SDS011;36672;50.710;12.498;2022-11-30T12:37:54;13.50;;;10.63;;
49314;SDS011;36672;50.710;12.498;2022-11-30T12:43:30;14.23;;;11.38;;
49314;SDS011;36672;50.710;12.498;2022-11-30T12:51:39;50.25;;;13.52;;
49314;SDS011;36672;50.710;12.498;2022-11-30T12:54:36;16.45;;;11.98;;
49314;SDS011;36672;50.710;12.498;2022-11-30T12:57:14;17.70;;;12.05;;
49314;SDS011;36672;50.710;12.498;2022-11-30T13:00:33;14.48;;;11.68;;
49314;SDS011;36672;50.710;12.498;2022-11-30T13:06:16;15.45;;;11.90;;
49314;SDS011;36672;50.710;12.498;2022-11-30T13:11:28;14.38;;;11.32;;
49314;SDS011;36672;50.710;12.498;2022-11-30T13:13:59;14.35;;;11.82;;
49314;SDS011;36672;50.710;12.498;2022-11-30T13:16:24;14.35;;;12.20;;
49314;SDS011;36672;50.710;12.498;2022-11-30T13:18:51;18.30;;;12.82;;
49314;SDS011;36672;50.710;12.498;2022-11-30T13:21:28;16.75;;;12.25;;
49314;SDS011;36672;50.710;12.498;2022-11-30T13:24:09;19.42;;;13.68;;
49314;SDS011;36672;50.710;12.498;2022-11-30T13:26:51;15.20;;;11.80;;
49314;SDS011;36672;50.710;12.498;2022-11-30T13:29:38;15.25;;;11.80;;
49314;SDS011;36672;50.710;12.498;2022-11-30T13:32:14;15.88;;;11.57;;
49314;SDS011;36672;50.710;12.498;2022-11-30T13:34:41;16.50;;;11.90;;
49314;SDS011;36672;50.710;12.498;2022-11-30T13:37:07;17.00;;;12.50;;
49314;SDS011;36672;50.710;12.498;2022-11-30T13:39:56;19.63;;;15.25;;
49314;SDS011;36672;50.710;12.498;2022-11-30T13:47:37;17.00;;;12.40;;
49314;SDS011;36672;50.710;12.498;2022-11-30T13:50:05;16.75;;;12.52;;
49314;SDS011;36672;50.710;12.498;2022-11-30T14:02:54;20.85;;;12.40;;
49314;SDS011;36672;50.710;12.498;2022-11-30T14:11:44;16.25;;;11.50;;
49314;SDS011;36672;50.710;12.498;2022-11-30T14:14:31;17.23;;;11.27;;
49314;SDS011;36672;50.710;12.498;2022-11-30T14:17:09;17.60;;;12.48;;
49314;SDS011;36672;50.710;12.498;2022-11-30T14:19:37;18.02;;;12.60;;
49314;SDS011;36672;50.710;12.498;2022-11-30T14:22:03;17.02;;;11.93;;
49314;SDS011;36672;50.710;12.498;2022-11-30T14:24:34;17.05;;;12.52;;
49314;SDS011;36672;50.710;12.498;2022-11-30T14:27:00;16.50;;;11.70;;
49314;SDS011;36672;50.710;12.498;2022-11-30T14:29:28;19.13;;;13.02;;
49314;SDS011;36672;50.710;12.498;2022-11-30T14:32:17;18.02;;;12.55;;
49314;SDS011;36672;50.710;12.498;2022-11-30T14:34:45;20.50;;;13.88;;
49314;SDS011;36672;50.710;12.498;2022-11-30T14:37:15;22.08;;;14.18;;
49314;SDS011;36672;50.710;12.498;2022-11-30T14:39:45;17.35;;;13.27;;
49314;SDS011;36672;50.710;12.498;2022-11-30T14:42:19;21.33;;;15.18;;
49314;SDS011;36672;50.710;12.498;2022-11-30T14:44:52;18.42;;;12.93;;
49314;SDS011;36672;50.710;12.498;2022-11-30T14:47:26;18.23;;;12.38;;
49314;SDS011;36672;50.710;12.498;2022-11-30T14:49:54;20.35;;;13.57;;
49314;SDS011;36672;50.710;12.498;2022-11-30T14:58:17;19.52;;;12.63;;
49314;SDS011;36672;50.710;12.498;2022-11-30T15:00:44;17.67;;;12.35;;
49314;SDS011;36672;50.710;12.498;2022-11-30T15:03:29;17.25;;;12.45;;
49314;SDS011;36672;50.710;12.498;2022-11-30T15:06:02;16.38;;;11.90;;
49314;SDS011;36672;50.710;12.498;2022-11-30T15:08:41;17.30;;;12.00;;
49314;SDS011;36672;50.710;12.498;2022-11-30T15:11:12;18.33;;;12.43;;
49314;SDS011;36672;50.710;12.498;2022-11-30T15:13:42;18.55;;;13.23;;
49314;SDS011;36672;50.710;12.498;2022-11-30T15:16:31;15.38;;;11.75;;
49314;SDS011;36672;50.710;12.498;2022-11-30T15:18:57;13.82;;;10.88;;
49314;SDS011;36672;50.710;12.498;2022-11-30T15:21:25;16.10;;;11.73;;
49314;SDS011;36672;50.710;12.498;2022-11-30T15:23:53;14.20;;;11.57;;
49314;SDS011;36672;50.710;12.498;2022-11-30T15:26:20;16.15;;;12.63;;
49314;SDS011;36672;50.710;12.498;2022-11-30T15:29:05;15.65;;;11.93;;
49314;SDS011;36672;50.710;12.498;2022-11-30T15:31:37;14.57;;;11.10;;
49314;SDS011;36672;50.710;12.498;2022-11-30T15:34:05;13.55;;;10.40;;
49314;SDS011;36672;50.710;12.498;2022-11-30T15:36:40;15.32;;;11.52;;
49314;SDS011;36672;50.710;12.498;2022-11-30T15:39:06;14.55;;;10.90;;
49314;SDS011;36672;50.710;12.498;2022-11-30T15:41:39;15.23;;;10.93;;
49314;SDS011;36672;50.710;12.498;2022-11-30T15:44:15;14.23;;;10.77;;
49314;SDS011;36672;50.710;12.498;2022-11-30T15:50:01;13.27;;;10.45;;
49314;SDS011;36672;50.710;12.498;2022-11-30T15:52:44;14.50;;;11.00;;
49314;SDS011;36672;50.710;12.498;2022-11-30T16:01:36;12.85;;;10.25;;
49314;SDS011;36672;50.710;12.498;2022-11-30T16:06:24;13.82;;;9.52;;
49314;SDS011;36672;50.710;12.498;2022-11-30T16:09:02;14.30;;;10.27;;
49314;SDS011;36672;50.710;12.498;2022-11-30T16:11:42;11.55;;;9.45;;
49314;SDS011;36672;50.710;12.498;2022-11-30T16:14:08;12.60;;;9.90;;
49314;SDS011;36672;50.710;12.498;2022-11-30T16:16:39;13.60;;;10.40;;
49314;SDS011;36672;50.710;12.498;2022-11-30T16:19:05;13.05;;;10.15;;
49314;SDS011;36672;50.710;12.498;2022-11-30T16:21:30;13.57;;;10.30;;
49314;SDS011;36672;50.710;12.498;2022-11-30T16:23:55;13.70;;;10.38;;